Time;durP1;ratioP1;P1;durP2;ratioP2;P2;SDS_P1;SDS_P2;PMS_P1;PMS_P2;Temp;Humidity;BMP_temperature;BMP_pressure;BME280_temperature;BME280_humidity;BME280_pressure;Samples;Min_cycle;Max_cycle;Signal;HPM_P1;HPM_P2
2022/02/24 00:01:23;;;;;;;11.75;7.40;;;;;;;4.84;70.01;99628.16;1764380;81;20976;-40
2022/02/24 00:03:49;;;;;;;10.65;7.28;;;;;;;4.86;70.03;99628.61;1764599;81;21028;-41
2022/02/24 00:06:19;;;;;;;13.03;7.53;;;;;;;4.81;70.12;99626.31;1764423;81;21108;-40
2022/02/24 00:08:45;;;;;;;13.38;7.67;;;;;;;4.80;70.20;99634.13;1764412;81;21494;-41
2022/02/24 00:11:11;;;;;;;10.53;7.25;;;;;;;4.78;70.23;99630.98;1764714;81;21104;-41
2022/02/24 00:13:38;;;;;;;12.75;7.78;;;;;;;4.73;70.23;99636.51;1764565;81;21498;-40
2022/02/24 00:16:04;;;;;;;10.95;6.80;;;;;;;4.71;70.36;99632.54;1789186;80;20973;-40
2022/02/24 00:18:32;;;;;;;12.05;7.15;;;;;;;4.72;70.37;99638.95;1789302;80;21546;-40
2022/02/24 00:20:58;;;;;;;10.78;7.17;;;;;;;4.73;70.32;99639.20;1789372;80;21099;-40
2022/02/24 00:23:25;;;;;;;12.82;7.62;;;;;;;4.73;70.42;99631.14;1789236;80;21992;-40
2022/02/24 00:25:52;;;;;;;13.15;7.78;;;;;;;4.72;70.48;99641.63;1789007;80;21040;-40
2022/02/24 00:28:18;;;;;;;11.40;8.30;;;;;;;4.72;70.50;99638.95;1789133;80;21088;-40
2022/02/24 00:30:45;;;;;;;12.75;7.83;;;;;;;4.75;70.50;99646.37;1789267;79;21471;-40
2022/02/24 00:33:11;;;;;;;10.75;7.35;;;;;;;4.75;70.41;99646.91;1789222;80;21076;-40
2022/02/24 00:35:39;;;;;;;10.63;7.42;;;;;;;4.73;70.36;99645.91;1789390;80;21804;-40
2022/02/24 00:38:06;;;;;;;13.70;7.62;;;;;;;4.76;70.37;99652.53;1788945;80;21015;-40
2022/02/24 00:40:33;;;;;;;13.15;7.47;;;;;;;4.79;70.27;99651.34;1788874;80;20960;-40
2022/02/24 00:43:00;;;;;;;12.15;7.83;;;;;;;4.78;70.41;99654.37;1788977;80;21024;-41
2022/02/24 00:45:27;;;;;;;14.33;8.60;;;;;;;4.78;70.49;99656.50;1789230;80;21064;-41
2022/02/24 00:47:54;;;;;;;12.55;7.62;;;;;;;4.75;70.54;99655.77;1768984;79;21128;-40
2022/02/24 00:50:20;;;;;;;13.05;7.60;;;;;;;4.74;70.53;99656.86;1768424;81;21016;-40
2022/02/24 00:52:47;;;;;;;12.10;7.95;;;;;;;4.76;70.43;99651.19;1767876;81;20964;-40
2022/02/24 00:55:13;;;;;;;13.13;8.00;;;;;;;4.83;70.31;99652.08;1768514;80;21517;-40
2022/02/24 00:57:40;;;;;;;11.45;7.83;;;;;;;4.90;70.21;99659.11;1768052;81;21530;-40
2022/02/24 01:00:08;;;;;;;14.20;8.33;;;;;;;4.90;70.26;99661.80;1768035;81;21201;-40
2022/02/24 01:02:36;;;;;;;11.65;7.90;;;;;;;4.86;70.34;99661.64;1768320;81;21514;-40
2022/02/24 01:05:04;;;;;;;14.28;8.78;;;;;;;4.83;70.30;99664.17;1768107;81;20917;-40
2022/02/24 01:07:32;;;;;;;14.20;8.15;;;;;;;4.74;70.36;99666.84;1768358;81;21029;-40
2022/02/24 01:09:58;;;;;;;11.55;7.67;;;;;;;4.69;70.31;99667.78;1768184;80;21519;-41
2022/02/24 01:12:25;;;;;;;10.50;7.58;;;;;;;4.68;70.58;99668.88;1768181;81;21151;-41
2022/02/24 01:14:52;;;;;;;9.58;7.47;;;;;;;4.67;70.60;99671.88;1768004;81;20968;-40
2022/02/24 01:17:19;;;;;;;13.88;8.40;;;;;;;4.66;70.74;99671.08;1768136;81;21036;-41
2022/02/24 01:19:45;;;;;;;11.88;8.28;;;;;;;4.68;70.84;99672.12;1768041;81;20988;-41
2022/02/24 01:22:12;;;;;;;13.68;8.05;;;;;;;4.69;71.01;99671.02;1768255;81;21040;-40
2022/02/24 01:24:39;;;;;;;13.18;8.10;;;;;;;4.72;70.98;99674.41;1768168;81;21074;-40
2022/02/24 01:27:06;;;;;;;12.82;7.53;;;;;;;4.73;70.80;99672.77;1768069;81;21626;-40
2022/02/24 01:29:32;;;;;;;10.23;7.40;;;;;;;4.72;70.62;99678.44;1768039;80;21315;-40
2022/02/24 01:31:59;;;;;;;11.22;7.55;;;;;;;4.70;70.60;99676.05;1768225;80;21640;-40
2022/02/24 01:34:27;;;;;;;14.28;7.60;;;;;;;4.68;70.64;99684.99;1768046;81;20964;-40
2022/02/24 01:36:54;;;;;;;13.13;8.58;;;;;;;4.65;70.82;99679.44;1768153;81;21828;-40
2022/02/24 01:39:21;;;;;;;12.18;8.30;;;;;;;4.64;71.07;99681.36;1767997;81;20964;-40
2022/02/24 01:41:48;;;;;;;14.10;8.63;;;;;;;4.63;70.83;99683.00;1768062;81;21339;-40
2022/02/24 01:44:15;;;;;;;13.32;9.28;;;;;;;4.56;70.97;99688.02;1768307;81;20949;-40
2022/02/24 01:46:42;;;;;;;14.30;8.95;;;;;;;4.55;71.13;99689.14;1768779;79;21525;-40
2022/02/24 01:49:10;;;;;;;12.58;8.63;;;;;;;4.59;71.12;99690.89;1770294;81;21129;-40
2022/02/24 01:51:38;;;;;;;12.20;9.18;;;;;;;4.59;71.13;99692.78;1770436;81;20957;-40
2022/02/24 01:54:05;;;;;;;15.00;9.10;;;;;;;4.55;71.31;99702.57;1770347;81;21023;-40
2022/02/24 01:56:34;;;;;;;12.68;9.45;;;;;;;4.53;71.58;99698.05;1770443;80;21068;-40
2022/02/24 01:59:00;;;;;;;14.00;9.33;;;;;;;4.53;71.51;99700.73;1770501;80;21142;-40
2022/02/24 02:01:27;;;;;;;12.93;9.33;;;;;;;4.48;71.53;99703.56;1770556;81;21935;-41
2022/02/24 02:03:54;;;;;;;13.50;8.70;;;;;;;4.40;71.64;99705.13;1770510;81;20972;-40
2022/02/24 02:06:22;;;;;;;11.75;8.08;;;;;;;4.44;71.75;99711.45;1770736;81;21490;-40
2022/02/24 02:08:49;;;;;;;10.50;8.38;;;;;;;4.47;71.67;99710.81;1770666;81;21067;-40
2022/02/24 02:11:16;;;;;;;12.28;8.35;;;;;;;4.45;71.87;99710.35;1770677;81;21040;-41
2022/02/24 02:13:43;;;;;;;12.03;8.38;;;;;;;4.45;71.88;99716.27;1770525;80;21976;-40
2022/02/24 02:16:11;;;;;;;12.33;8.18;;;;;;;4.43;71.85;99717.12;1770631;81;20920;-40
2022/02/24 02:18:39;;;;;;;11.85;7.75;;;;;;;4.42;71.82;99727.06;1770852;81;20960;-40
2022/02/24 02:21:06;;;;;;;8.10;6.55;;;;;;;4.48;71.77;99727.17;1770698;81;21012;-41
2022/02/24 02:23:33;;;;;;;10.63;7.45;;;;;;;4.56;71.60;99727.75;1770245;81;21051;-40
2022/02/24 02:26:00;;;;;;;10.25;7.17;;;;;;;4.55;71.47;99731.53;1770320;81;21485;-40
2022/02/24 02:28:26;;;;;;;10.50;7.92;;;;;;;4.54;71.54;99735.34;1770237;81;21013;-40
2022/02/24 02:30:53;;;;;;;12.30;8.03;;;;;;;4.54;71.57;99734.00;1770125;79;21028;-40
2022/02/24 02:33:19;;;;;;;9.30;6.83;;;;;;;4.52;71.39;99734.84;1770437;81;21549;-40
2022/02/24 02:35:45;;;;;;;8.73;6.85;;;;;;;4.49;71.48;99738.16;1770314;81;21009;-40
2022/02/24 02:38:12;;;;;;;8.75;6.80;;;;;;;4.57;71.28;99741.97;1770181;81;21084;-40
2022/02/24 02:40:39;;;;;;;9.80;7.08;;;;;;;4.58;71.13;99741.66;1770364;81;21050;-40
2022/02/24 02:43:08;;;;;;;9.23;6.65;;;;;;;4.53;71.17;99751.75;1770081;81;20975;-40
2022/02/24 02:45:39;;;;;;;9.13;7.05;;;;;;;4.46;71.21;99758.89;1769639;81;21570;-40
2022/02/24 02:48:06;;;;;;;8.10;6.92;;;;;;;4.40;71.31;99758.81;1765732;81;21609;-40
2022/02/24 02:50:33;;;;;;;9.63;6.60;;;;;;;4.32;71.47;99757.64;1764496;81;21101;-40
2022/02/24 02:53:03;;;;;;;8.53;6.20;;;;;;;4.35;71.53;99762.97;1764488;81;21099;-40
2022/02/24 02:55:30;;;;;;;9.23;6.78;;;;;;;4.38;71.55;99761.00;1764670;81;21575;-40
2022/02/24 02:57:56;;;;;;;7.85;6.22;;;;;;;4.38;71.59;99763.67;1764369;81;20984;-40
2022/02/24 03:00:23;;;;;;;7.62;6.17;;;;;;;4.38;71.60;99758.31;1764818;81;21032;-40
2022/02/24 03:02:50;;;;;;;8.70;6.42;;;;;;;4.36;71.48;99762.64;1764373;81;21129;-40
2022/02/24 03:05:16;;;;;;;6.22;5.62;;;;;;;4.32;71.46;99759.53;1760014;81;21570;-40
2022/02/24 03:07:44;;;;;;;7.40;5.67;;;;;;;4.32;71.34;99766.25;1764238;81;20928;-41
2022/02/24 03:10:11;;;;;;;7.47;5.72;;;;;;;4.37;71.36;99760.75;1764854;81;21547;-41
2022/02/24 03:12:38;;;;;;;7.78;6.33;;;;;;;4.40;71.26;99764.17;1764469;81;21036;-40
2022/02/24 03:15:09;;;;;;;6.45;5.67;;;;;;;4.40;71.22;99765.52;1764455;81;21141;-40
2022/02/24 03:17:37;;;;;;;8.83;6.42;;;;;;;4.38;71.06;99769.05;1764304;81;20901;-40
2022/02/24 03:20:05;;;;;;;7.72;6.40;;;;;;;4.34;71.03;99770.77;1764587;81;21490;-40
2022/02/24 03:22:33;;;;;;;5.78;5.10;;;;;;;4.32;70.96;99772.95;1764829;81;21011;-41
2022/02/24 03:25:01;;;;;;;6.37;4.97;;;;;;;4.36;70.81;99768.55;1764420;81;20953;-40
2022/02/24 03:27:28;;;;;;;7.25;5.62;;;;;;;4.37;70.67;99773.63;1764452;81;21885;-40
2022/02/24 03:29:54;;;;;;;6.35;5.25;;;;;;;4.33;70.66;99778.03;1759036;80;20924;-40
2022/02/24 03:32:21;;;;;;;8.85;6.17;;;;;;;4.30;70.67;99784.56;1764324;81;20937;-40
2022/02/24 03:34:48;;;;;;;7.08;5.33;;;;;;;4.22;70.64;99781.27;1764443;81;21005;-40
2022/02/24 03:37:15;;;;;;;6.33;5.15;;;;;;;4.12;70.76;99784.98;1759274;81;21005;-40
2022/02/24 03:39:42;;;;;;;6.08;4.70;;;;;;;4.07;70.87;99785.66;1764486;81;21101;-40
2022/02/24 03:42:09;;;;;;;6.67;4.95;;;;;;;4.08;70.86;99781.34;1764310;81;21074;-40
2022/02/24 03:44:35;;;;;;;6.67;4.87;;;;;;;4.10;70.92;99779.16;1764765;81;21058;-40
2022/02/24 03:47:02;;;;;;;6.22;5.15;;;;;;;4.08;70.98;99780.55;1764299;81;21003;-41
2022/02/24 03:49:29;;;;;;;7.78;5.45;;;;;;;4.09;70.97;99775.42;1764416;81;21059;-40
2022/02/24 03:51:56;;;;;;;6.50;5.70;;;;;;;4.07;70.94;99772.25;1764461;81;21810;-40
2022/02/24 03:54:24;;;;;;;6.17;5.15;;;;;;;4.08;70.99;99771.16;1764219;81;21036;-40
2022/02/24 03:56:51;;;;;;;5.37;4.80;;;;;;;4.16;70.86;99774.45;1764239;81;21020;-40
2022/02/24 03:59:17;;;;;;;7.37;4.90;;;;;;;4.27;70.60;99781.13;1764624;81;21541;-40
2022/02/24 04:01:44;;;;;;;7.05;5.10;;;;;;;4.39;70.27;99789.42;1764574;81;21024;-40
2022/02/24 04:04:12;;;;;;;5.03;4.40;;;;;;;4.38;70.12;99787.29;1764631;81;21120;-40
2022/02/24 04:06:39;;;;;;;6.92;5.58;;;;;;;4.38;70.10;99790.52;1764485;81;20989;-40
2022/02/24 04:09:06;;;;;;;6.65;5.17;;;;;;;4.37;69.92;99799.12;1764614;81;21031;-41
2022/02/24 04:11:32;;;;;;;6.20;5.05;;;;;;;4.30;69.67;99796.09;1764398;81;21096;-40
2022/02/24 04:13:59;;;;;;;6.45;4.62;;;;;;;4.24;69.55;99805.91;1764633;81;21550;-41
2022/02/24 04:16:26;;;;;;;6.20;4.40;;;;;;;4.12;69.49;99814.50;1789319;80;21138;-40
2022/02/24 04:18:52;;;;;;;6.65;4.37;;;;;;;4.08;69.63;99807.38;1789051;80;21017;-40
2022/02/24 04:21:20;;;;;;;7.12;5.08;;;;;;;4.05;69.71;99813.36;1789143;80;21019;-41
2022/02/24 04:23:46;;;;;;;6.55;4.78;;;;;;;3.96;69.98;99816.53;1789110;80;21562;-41
2022/02/24 04:26:13;;;;;;;6.37;4.78;;;;;;;3.91;70.09;99824.95;1787631;78;21072;-40
2022/02/24 04:28:39;;;;;;;6.00;5.10;;;;;;;3.90;70.15;99827.38;1760690;81;21218;-40
2022/02/24 04:31:06;;;;;;;6.05;4.78;;;;;;;3.88;70.09;99830.10;1761702;81;21052;-40
2022/02/24 04:33:33;;;;;;;5.58;4.53;;;;;;;3.82;69.99;99836.70;1762128;81;21024;-40
2022/02/24 04:35:59;;;;;;;5.97;4.90;;;;;;;3.81;70.13;99842.61;1762067;81;21008;-41
2022/02/24 04:38:26;;;;;;;5.95;4.80;;;;;;;3.88;70.23;99842.97;1762037;81;21518;-40
2022/02/24 04:40:52;;;;;;;6.25;5.42;;;;;;;3.93;70.22;99848.22;1761737;81;21142;-40
2022/02/24 04:43:19;;;;;;;5.85;5.03;;;;;;;3.98;69.99;99851.33;1761944;81;20929;-40
2022/02/24 04:45:46;;;;;;;5.67;4.72;;;;;;;4.01;69.75;99859.34;1761713;81;21123;-40
2022/02/24 04:48:13;;;;;;;6.95;5.30;;;;;;;4.01;69.52;99861.47;1754595;81;21033;-40
2022/02/24 04:50:40;;;;;;;6.92;5.25;;;;;;;4.04;69.37;99868.11;1748432;82;21084;-40
2022/02/24 04:53:07;;;;;;;5.65;4.87;;;;;;;4.06;69.29;99872.09;1748577;82;21063;-40
2022/02/24 04:55:33;;;;;;;5.60;4.78;;;;;;;4.12;69.19;99874.08;1748297;82;21067;-40
2022/02/24 04:58:00;;;;;;;4.87;4.37;;;;;;;4.22;68.90;99882.69;1748387;82;21542;-40
2022/02/24 05:00:26;;;;;;;7.15;5.10;;;;;;;4.22;68.83;99892.08;1748536;82;21032;-40
2022/02/24 05:02:53;;;;;;;6.67;4.80;;;;;;;4.20;69.17;99888.93;1748588;82;21009;-40
2022/02/24 05:05:21;;;;;;;7.42;5.17;;;;;;;4.22;69.29;99902.82;1748417;82;21783;-40
2022/02/24 05:07:48;;;;;;;8.40;6.10;;;;;;;4.24;69.42;99906.55;1748243;82;21000;-40
2022/02/24 05:10:15;;;;;;;6.97;5.22;;;;;;;4.25;69.46;99914.85;1748544;82;21547;-41
2022/02/24 05:12:43;;;;;;;7.17;5.58;;;;;;;4.27;69.59;99917.46;1748485;82;21516;-40
2022/02/24 05:15:11;;;;;;;6.55;5.30;;;;;;;4.26;69.50;99919.13;1748559;82;21578;-40
2022/02/24 05:17:40;;;;;;;5.92;4.72;;;;;;;4.29;69.61;99923.88;1748487;82;21146;-40
2022/02/24 05:20:10;;;;;;;6.47;5.30;;;;;;;4.34;69.72;99929.92;1748416;82;21024;-40
2022/02/24 05:22:41;;;;;;;;;;;;;;;4.37;69.65;99933.88;1750914;82;21504;-40
2022/02/24 05:25:11;;;;;;;8.33;5.92;;;;;;;4.38;69.82;99932.79;1748279;82;20146;-40
2022/02/24 05:27:39;;;;;;;7.03;6.17;;;;;;;4.26;70.25;99941.36;1747641;82;21563;-40
2022/02/24 05:30:07;;;;;;;7.70;6.15;;;;;;;4.28;70.25;99946.44;1761856;81;21115;-40
2022/02/24 05:32:35;;;;;;;9.93;6.22;;;;;;;4.27;70.31;99951.55;1774131;80;21511;-40
2022/02/24 05:35:02;;;;;;;7.80;5.75;;;;;;;4.29;70.31;99956.09;1755988;81;20981;-40
2022/02/24 05:37:29;;;;;;;7.20;5.08;;;;;;;4.34;70.35;99958.66;1755801;81;21013;-40
2022/02/24 05:39:56;;;;;;;7.08;5.60;;;;;;;4.46;70.46;99957.55;1756000;81;21084;-40
2022/02/24 05:42:25;;;;;;;7.22;6.03;;;;;;;4.54;70.28;99965.45;1756300;81;21826;-40
2022/02/24 05:44:52;;;;;;;11.03;6.50;;;;;;;4.55;70.18;99965.13;1755927;81;21792;-40
2022/02/24 05:47:18;;;;;;;7.60;5.70;;;;;;;4.59;70.18;99970.70;1756682;80;20976;-40
2022/02/24 05:49:45;;;;;;;8.65;6.42;;;;;;;4.65;70.06;99974.28;1783002;80;21500;-40
2022/02/24 05:52:12;;;;;;;9.65;6.15;;;;;;;4.67;69.86;99980.70;1783102;80;21035;-40
2022/02/24 05:54:38;;;;;;;7.05;5.80;;;;;;;4.69;69.58;99981.20;1782967;80;21050;-40
2022/02/24 05:57:05;;;;;;;7.90;6.05;;;;;;;4.70;69.37;99982.77;1782891;80;21639;-40
2022/02/24 05:59:31;;;;;;;9.38;5.92;;;;;;;4.70;69.42;99988.94;1782981;80;21896;-40
2022/02/24 06:03:11;;;;;;;9.00;6.67;;;;;;;4.75;69.46;99982.65;1830758;78;22664;-40
2022/02/24 06:05:40;;;;;;;8.80;6.67;;;;;;;4.64;69.56;99990.18;1802827;79;20928;-39
2022/02/24 06:08:06;;;;;;;9.90;7.08;;;;;;;4.62;69.67;99992.91;1803046;79;21102;-39
2022/02/24 06:10:34;;;;;;;9.73;7.42;;;;;;;4.63;69.74;99998.53;1802924;79;21568;-40
2022/02/24 06:13:00;;;;;;;11.08;6.67;;;;;;;4.64;69.74;99998.23;1803198;79;20966;-40
2022/02/24 06:15:27;;;;;;;7.20;6.22;;;;;;;4.71;69.75;100003.16;1803095;79;20884;-39
2022/02/24 06:17:54;;;;;;;8.18;6.72;;;;;;;4.80;69.49;100000.78;1803158;79;21532;-39
2022/02/24 06:20:21;;;;;;;9.13;7.50;;;;;;;4.90;69.29;100006.46;1802974;79;21131;-39
2022/02/24 06:22:49;;;;;;;9.03;7.37;;;;;;;4.93;69.31;100007.77;1802877;79;20884;-39
2022/02/24 06:25:17;;;;;;;12.23;7.70;;;;;;;4.96;69.38;100008.48;1801279;79;20983;-39
2022/02/24 06:27:44;;;;;;;8.70;7.25;;;;;;;5.00;69.30;100022.34;1771503;81;21388;-40
2022/02/24 06:30:12;;;;;;;11.25;8.53;;;;;;;5.04;69.13;100022.52;1771780;80;21534;-39
2022/02/24 06:32:41;;;;;;;12.13;8.45;;;;;;;5.07;69.02;100023.27;1771795;81;21082;-39
2022/02/24 06:35:09;;;;;;;13.53;9.05;;;;;;;5.14;68.94;100026.30;1771459;80;21015;-39
2022/02/24 06:37:40;;;;;;;11.65;9.25;;;;;;;5.22;68.72;100029.06;1771888;81;20917;-39
2022/02/24 06:40:09;;;;;;;11.73;8.68;;;;;;;5.30;68.49;100042.84;1771646;80;21043;-39
2022/02/24 06:42:36;;;;;;;10.85;7.92;;;;;;;5.25;68.29;100043.77;1771786;81;26989;-39
2022/02/24 06:45:04;;;;;;;11.48;8.93;;;;;;;5.17;68.38;100042.62;1771571;80;21115;-39
2022/02/24 06:47:31;;;;;;;12.85;8.70;;;;;;;5.13;68.64;100050.27;1771948;81;20977;-39
2022/02/24 06:49:57;;;;;;;10.93;8.60;;;;;;;5.10;68.74;100058.92;1771594;81;21614;-39
2022/02/24 06:52:24;;;;;;;10.70;8.48;;;;;;;5.11;68.84;100057.83;1771828;81;21040;-39
2022/02/24 06:54:50;;;;;;;10.60;8.53;;;;;;;5.09;68.80;100058.13;1771427;81;21087;-39
2022/02/24 06:57:17;;;;;;;11.93;8.03;;;;;;;5.12;68.89;100062.91;1771964;80;21083;-39
2022/02/24 06:59:44;;;;;;;11.25;8.80;;;;;;;5.16;68.97;100069.25;1771601;81;21786;-39
2022/02/24 07:02:11;;;;;;;11.05;9.33;;;;;;;5.18;69.15;100065.69;1766406;81;20934;-39
2022/02/24 07:04:37;;;;;;;13.05;8.85;;;;;;;5.21;69.28;100073.71;1760707;81;21016;-39
2022/02/24 07:07:04;;;;;;;14.80;9.85;;;;;;;5.24;69.33;100071.74;1760785;81;20973;-39
2022/02/24 07:09:31;;;;;;;11.55;8.48;;;;;;;5.29;69.38;100074.31;1755724;81;22479;-39
2022/02/24 07:11:59;;;;;;;14.98;9.73;;;;;;;5.35;69.17;100078.47;1760773;81;20965;-40
2022/02/24 07:14:26;;;;;;;12.15;8.85;;;;;;;5.41;69.17;100077.24;1760169;81;20925;-40
2022/02/24 07:16:53;;;;;;;12.10;9.83;;;;;;;5.50;69.14;100086.70;1760047;81;21097;-39
2022/02/24 07:19:20;;;;;;;13.08;9.08;;;;;;;5.48;69.06;100085.66;1760206;81;21037;-39
2022/02/24 07:21:48;;;;;;;14.70;9.40;;;;;;;5.43;69.12;100089.81;1760039;81;21759;-39
2022/02/24 07:24:15;;;;;;;11.78;10.15;;;;;;;5.41;69.27;100101.99;1760151;80;21497;-39
2022/02/24 07:26:41;;;;;;;12.95;9.68;;;;;;;5.35;69.39;100102.66;1780272;80;20982;-39
2022/02/24 07:29:08;;;;;;;13.13;9.60;;;;;;;5.35;69.39;100105.35;1791485;79;21496;-39
2022/02/24 07:31:35;;;;;;;13.72;9.53;;;;;;;5.37;69.36;100100.47;1791277;79;21069;-39
2022/02/24 07:34:04;;;;;;;14.78;9.40;;;;;;;5.38;69.23;100102.59;1791310;80;21162;-39
2022/02/24 07:36:34;;;;;;;14.45;10.35;;;;;;;5.35;69.58;100104.01;1791208;79;21009;-39
2022/02/24 07:39:00;;;;;;;;;;;;;;;5.31;69.60;100103.04;1794175;79;21025;-39
2022/02/24 07:41:27;;;;;;;11.50;8.98;;;;;;;5.28;69.78;100100.17;1791302;79;20095;-39
2022/02/24 07:43:53;;;;;;;11.15;8.33;;;;;;;5.17;70.26;100104.99;1791532;80;20982;-39
2022/02/24 07:46:20;;;;;;;11.45;8.53;;;;;;;5.21;70.09;100109.45;1791426;80;21118;-39
2022/02/24 07:48:46;;;;;;;13.83;9.05;;;;;;;5.28;70.10;100116.30;1791523;80;21053;-39
2022/02/24 07:51:13;;;;;;;11.50;8.35;;;;;;;5.37;69.90;100117.95;1791496;79;20978;-39
2022/02/24 07:53:39;;;;;;;13.03;9.70;;;;;;;5.36;69.87;100120.94;1791347;79;20994;-39
2022/02/24 07:56:06;;;;;;;13.53;9.25;;;;;;;5.37;70.04;100126.02;1791610;79;21033;-40
2022/02/24 07:58:34;;;;;;;13.15;8.40;;;;;;;5.43;70.10;100126.66;1791242;79;21133;-39
2022/02/24 08:01:00;;;;;;;14.25;8.33;;;;;;;5.47;69.85;100131.13;1791378;79;21516;-39
2022/02/24 08:03:26;;;;;;;10.93;7.60;;;;;;;5.50;69.71;100139.94;1805389;79;20968;-39
2022/02/24 08:05:54;;;;;;;10.50;7.65;;;;;;;5.56;69.48;100141.41;1808329;79;21021;-39
2022/02/24 08:08:22;;;;;;;12.27;8.43;;;;;;;5.61;69.26;100138.59;1808657;78;20996;-39
2022/02/24 08:10:49;;;;;;;11.08;8.00;;;;;;;5.61;69.10;100140.49;1808277;78;21839;-39
2022/02/24 08:13:16;;;;;;;9.18;7.53;;;;;;;5.58;69.20;100147.26;1808218;78;20965;-39
2022/02/24 08:15:44;;;;;;;10.00;7.47;;;;;;;5.59;69.25;100137.30;1808190;78;20964;-39
2022/02/24 08:18:11;;;;;;;9.45;7.65;;;;;;;5.57;68.69;100145.66;1808460;79;21574;-39
2022/02/24 08:20:37;;;;;;;9.35;6.92;;;;;;;5.54;68.80;100143.59;1808286;78;20983;-39
2022/02/24 08:23:04;;;;;;;10.15;7.00;;;;;;;5.56;68.86;100148.13;1808139;79;21143;-40
2022/02/24 08:25:32;;;;;;;9.45;7.17;;;;;;;5.57;68.93;100147.01;1808094;78;21048;-40
2022/02/24 08:27:59;;;;;;;11.25;7.85;;;;;;;5.57;69.02;100144.32;1808309;79;20978;-39
2022/02/24 08:30:26;;;;;;;11.75;7.58;;;;;;;5.60;69.24;100147.76;1808253;79;21012;-40
2022/02/24 08:32:53;;;;;;;9.58;7.05;;;;;;;5.67;69.21;100151.34;1808106;78;21009;-40
2022/02/24 08:35:20;;;;;;;8.88;6.90;;;;;;;5.69;68.90;100144.57;1808332;78;21088;-40
2022/02/24 08:37:47;;;;;;;8.08;6.50;;;;;;;5.75;68.74;100153.86;1808334;78;20926;-39
2022/02/24 08:40:17;;;;;;;12.13;6.67;;;;;;;5.83;68.43;100152.56;1808354;79;21512;-39
2022/02/24 08:42:44;;;;;;;10.18;7.03;;;;;;;5.91;68.41;100151.03;1808875;79;21279;-40
2022/02/24 08:45:11;;;;;;;11.50;7.35;;;;;;;6.01;68.54;100153.46;1808463;79;21016;-40
2022/02/24 08:47:39;;;;;;;9.33;6.58;;;;;;;6.07;68.23;100150.34;1808686;79;21177;-40
2022/02/24 08:50:07;;;;;;;11.50;6.80;;;;;;;6.18;67.98;100153.55;1808465;79;20986;-39
2022/02/24 08:52:33;;;;;;;9.65;7.12;;;;;;;6.26;67.57;100155.48;1808737;79;20973;-39
2022/02/24 08:55:00;;;;;;;8.23;5.97;;;;;;;6.31;67.08;100159.37;1808359;78;21009;-39
2022/02/24 08:57:26;;;;;;;9.18;6.20;;;;;;;6.32;66.49;100158.28;1808791;78;21080;-40
2022/02/24 08:59:53;;;;;;;6.60;5.50;;;;;;;6.32;66.15;100159.63;1808515;79;21834;-39
2022/02/24 09:02:20;;;;;;;6.85;5.62;;;;;;;6.34;65.85;100160.09;1804606;79;20966;-40
2022/02/24 09:04:46;;;;;;;8.00;5.87;;;;;;;6.39;65.82;100163.22;1791412;80;21535;-39
2022/02/24 09:07:13;;;;;;;7.42;5.50;;;;;;;6.42;65.84;100162.59;1791602;79;21512;-40
2022/02/24 09:09:40;;;;;;;8.20;5.15;;;;;;;6.44;65.61;100173.28;1791537;79;21033;-40
2022/02/24 09:12:08;;;;;;;7.08;5.20;;;;;;;6.47;65.33;100163.25;1791815;79;21145;-39
2022/02/24 09:14:35;;;;;;;6.60;5.42;;;;;;;6.50;65.11;100159.92;1791507;80;20938;-40
2022/02/24 09:17:04;;;;;;;8.13;5.47;;;;;;;6.55;65.11;100166.52;1791809;79;21477;-39
2022/02/24 09:19:31;;;;;;;6.65;5.87;;;;;;;6.51;64.46;100167.45;1791559;80;21009;-39
2022/02/24 09:21:58;;;;;;;7.87;6.30;;;;;;;6.39;64.31;100168.03;1791412;79;20994;-40
2022/02/24 09:24:24;;;;;;;9.20;6.60;;;;;;;6.34;64.31;100164.71;1791449;80;23294;-39
2022/02/24 09:26:51;;;;;;;6.62;5.33;;;;;;;6.29;64.58;100173.72;1791548;79;20935;-39
2022/02/24 09:29:17;;;;;;;6.80;4.92;;;;;;;6.29;64.87;100173.72;1791518;80;21496;-40
2022/02/24 09:31:44;;;;;;;7.03;5.25;;;;;;;6.32;64.72;100174.98;1791163;80;21057;-40
2022/02/24 09:34:11;;;;;;;7.67;5.30;;;;;;;6.36;64.82;100174.05;1791606;80;21006;-39
2022/02/24 09:36:39;;;;;;;6.97;5.37;;;;;;;6.36;64.81;100175.95;1791249;80;21957;-40
2022/02/24 09:39:05;;;;;;;8.85;6.15;;;;;;;6.39;64.65;100173.42;1791271;79;21001;-40
2022/02/24 09:41:32;;;;;;;7.97;5.40;;;;;;;6.42;64.14;100163.94;1791218;80;20930;-39
2022/02/24 09:43:58;;;;;;;6.33;5.05;;;;;;;6.39;64.06;100165.92;1791305;79;21571;-39
2022/02/24 09:46:26;;;;;;;6.80;4.90;;;;;;;6.36;63.96;100171.36;1791325;79;21006;-40
2022/02/24 09:48:55;;;;;;;5.72;4.47;;;;;;;6.36;63.83;100174.05;1791220;79;21055;-39
2022/02/24 09:51:22;;;;;;;6.97;4.85;;;;;;;6.37;63.82;100170.81;1791329;79;21260;-40
2022/02/24 09:53:48;;;;;;;7.08;4.90;;;;;;;6.34;63.83;100165.48;1791152;80;21018;-40
2022/02/24 09:56:21;;;;;;;6.17;4.55;;;;;;;6.36;63.90;100163.83;1791738;80;21501;-39
2022/02/24 09:58:49;;;;;;;7.10;4.10;;;;;;;6.37;63.53;100156.80;1791093;80;21065;-40
2022/02/24 10:01:17;;;;;;;5.17;3.80;;;;;;;6.39;63.34;100157.84;1791646;79;21016;-40
2022/02/24 10:03:46;;;;;;;5.50;4.08;;;;;;;6.48;63.15;100162.70;1791042;79;20957;-40
2022/02/24 10:06:15;;;;;;;6.30;4.12;;;;;;;6.54;63.05;100155.48;1791415;80;21033;-40
2022/02/24 10:08:45;;;;;;;4.25;3.45;;;;;;;6.60;62.21;100163.42;1791178;79;20899;-40
2022/02/24 10:11:23;;;;;;;4.58;3.52;;;;;;;6.59;61.85;100161.83;1791735;80;21069;-40
2022/02/24 10:14:07;;;;;;;5.35;4.05;;;;;;;6.59;62.00;100160.48;1791121;79;21117;-40
2022/02/24 10:16:57;;;;;;;5.28;3.87;;;;;;;6.57;61.64;100157.33;1791154;79;20981;-39
2022/02/24 10:19:37;;;;;;;6.05;3.83;;;;;;;6.50;62.00;100161.27;1791278;80;21519;-40
2022/02/24 10:22:13;;;;;;;5.28;4.30;;;;;;;6.47;62.00;100165.94;1789906;79;21018;-40
2022/02/24 10:24:44;;;;;;;4.42;3.37;;;;;;;6.47;62.23;100163.80;1791373;80;20978;-40
2022/02/24 10:27:30;;;;;;;5.65;3.60;;;;;;;6.49;61.77;100159.67;1789972;80;21446;-40
2022/02/24 10:30:21;;;;;;;4.45;3.75;;;;;;;6.47;61.61;100155.72;1790741;79;21481;-39
2022/02/24 10:32:49;;;;;;;8.15;4.08;;;;;;;6.43;61.68;100155.55;1790750;79;21033;-40
2022/02/24 10:35:40;;;;;;;5.17;4.10;;;;;;;6.41;61.59;100155.61;1791232;79;21021;-39
2022/02/24 10:38:13;;;;;;;6.28;4.58;;;;;;;6.36;61.55;100153.85;1791266;80;21551;-39
2022/02/24 10:40:46;;;;;;;5.25;4.17;;;;;;;6.33;62.07;100145.06;1791249;79;21052;-40
2022/02/24 10:43:25;;;;;;;6.05;4.10;;;;;;;6.34;62.25;100140.47;1791254;79;20963;-39
2022/02/24 10:46:02;;;;;;;3.60;3.17;;;;;;;6.36;61.89;100147.67;1791252;80;21646;-40
2022/02/24 10:48:31;;;;;;;5.08;3.80;;;;;;;6.36;61.74;100147.12;1791268;79;20993;-40
2022/02/24 10:51:01;;;;;;;6.37;4.33;;;;;;;6.39;61.75;100153.22;1791363;79;21084;-40
2022/02/24 10:53:29;;;;;;;;;;;;;;;6.40;61.26;100160.75;1788432;80;21275;-39
2022/02/24 10:56:00;;;;;;;4.75;3.33;;;;;;;6.39;60.59;100157.26;1772578;80;20484;-40
2022/02/24 10:58:31;;;;;;;2.65;2.25;;;;;;;6.29;60.50;100154.88;1772657;81;20941;-40
2022/02/24 11:01:08;;;;;;;3.27;2.25;;;;;;;6.29;59.44;100154.88;1772343;80;21238;-39
2022/02/24 11:03:36;;;;;;;3.92;2.42;;;;;;;6.24;59.20;100154.22;1772496;79;21052;-39
2022/02/24 11:06:05;;;;;;;2.95;2.40;;;;;;;6.19;59.30;100159.19;1772713;81;21890;-40
2022/02/24 11:08:33;;;;;;;3.12;2.47;;;;;;;6.17;59.53;100153.31;1772585;81;25925;-39
2022/02/24 11:11:02;;;;;;;3.83;2.70;;;;;;;6.18;59.90;100152.20;1772418;81;20913;-39
2022/02/24 11:13:29;;;;;;;3.25;2.52;;;;;;;6.19;59.86;100149.77;1772530;81;20976;-39
2022/02/24 11:15:57;;;;;;;6.42;2.80;;;;;;;6.18;59.93;100149.52;1772803;80;21590;-40
2022/02/24 11:18:26;;;;;;;4.30;3.05;;;;;;;6.15;59.51;100149.35;1769413;81;21467;-40
2022/02/24 11:20:53;;;;;;;4.05;2.92;;;;;;;6.10;59.84;100144.87;1742113;82;20977;-40
2022/02/24 11:23:22;;;;;;;3.50;2.98;;;;;;;6.07;59.95;100144.16;1742206;82;20941;-39
2022/02/24 11:26:03;;;;;;;3.85;2.90;;;;;;;6.07;60.02;100145.50;1746760;81;20957;-40
2022/02/24 11:28:45;;;;;;;4.55;2.80;;;;;;;6.08;60.14;100149.79;1758451;81;20934;-39
2022/02/24 11:31:25;;;;;;;4.58;3.33;;;;;;;6.08;60.14;100148.44;1721841;83;21966;-39
2022/02/24 11:33:53;;;;;;;4.37;3.20;;;;;;;6.08;60.36;100140.37;1703382;83;21638;-39
2022/02/24 11:36:20;;;;;;;4.55;3.20;;;;;;;6.12;60.75;100142.67;1711925;83;20961;-40
2022/02/24 11:39:12;;;;;;;5.17;3.50;;;;;;;6.17;60.80;100140.39;1712040;83;21059;-40